createdAt,value
2023-01-21T00:01:36.668Z,15.50
2023-01-21T00:03:38.627Z,15.50
2023-01-21T00:05:40.512Z,15.50
2023-01-21T00:07:42.295Z,15.60
2023-01-21T00:09:44.240Z,15.50
2023-01-21T00:11:46.165Z,15.50
2023-01-21T00:13:48.069Z,15.50
2023-01-21T00:15:50.018Z,15.50
2023-01-21T00:17:52.967Z,15.50
2023-01-21T00:19:54.753Z,15.50
2023-01-21T00:21:56.775Z,15.60
2023-01-21T00:23:58.633Z,15.50
2023-01-21T00:26:01.502Z,15.60
2023-01-21T00:28:03.385Z,15.60
2023-01-21T00:30:06.667Z,15.60
2023-01-21T00:32:08.442Z,15.60
2023-01-21T00:34:10.561Z,15.60
2023-01-21T00:36:13.279Z,15.50
2023-01-21T00:38:15.042Z,15.60
2023-01-21T00:40:16.917Z,15.50
2023-01-21T00:42:19.083Z,15.50
2023-01-21T00:44:20.824Z,15.50
2023-01-21T00:46:22.740Z,15.60
2023-01-21T00:48:25.029Z,15.60
2023-01-21T00:50:26.872Z,15.50
2023-01-21T00:52:28.703Z,15.50
2023-01-21T00:54:30.617Z,15.50
2023-01-21T00:56:32.603Z,15.50
2023-01-21T00:58:34.862Z,15.60
2023-01-21T01:00:36.794Z,15.60
2023-01-21T01:02:41.554Z,15.60
2023-01-21T01:04:43.382Z,15.50
2023-01-21T01:06:45.461Z,15.50
2023-01-21T01:08:47.468Z,15.50
2023-01-21T01:10:49.291Z,15.50
2023-01-21T01:12:51.388Z,15.50
2023-01-21T01:14:53.264Z,15.50
2023-01-21T01:16:55.023Z,15.50
2023-01-21T01:18:57.032Z,15.50
2023-01-21T01:20:58.846Z,15.50
2023-01-21T01:23:01.248Z,15.50
2023-01-21T01:25:03.228Z,15.50
2023-01-21T01:27:05.976Z,15.50
2023-01-21T01:29:07.818Z,15.50
2023-01-21T01:31:11.818Z,15.50
2023-01-21T01:33:13.676Z,15.50
2023-01-21T01:35:15.505Z,15.50
2023-01-21T01:37:17.447Z,15.50
2023-01-21T01:39:19.547Z,15.40
2023-01-21T01:41:25.820Z,15.40
2023-01-21T01:43:47.720Z,15.40
2023-01-21T01:45:49.694Z,15.50
2023-01-21T01:48:02.756Z,15.50
2023-01-21T01:50:06.900Z,15.50
2023-01-21T01:52:10.953Z,15.50
2023-01-21T01:54:14.782Z,15.60
2023-01-21T01:56:16.658Z,15.50
2023-01-21T01:58:19.502Z,15.50
2023-01-21T02:00:21.557Z,15.50
2023-01-21T02:02:24.637Z,15.50
2023-01-21T02:04:29.017Z,15.50
2023-01-21T02:06:30.930Z,15.50
2023-01-21T02:08:33.632Z,15.50
2023-01-21T02:10:35.813Z,15.50
2023-01-21T02:12:39.435Z,15.60
2023-01-21T02:14:41.362Z,15.50
2023-01-21T02:16:43.090Z,15.50
2023-01-21T02:18:53.652Z,15.50
2023-01-21T02:21:06.717Z,15.60
2023-01-21T02:23:20.389Z,15.50
2023-01-21T02:25:22.151Z,15.50
2023-01-21T02:27:32.049Z,15.50
2023-01-21T02:29:36.905Z,15.50
2023-01-21T02:31:41.703Z,15.50
2023-01-21T02:34:12.755Z,15.50
2023-01-21T02:36:26.855Z,15.50
2023-01-21T02:38:35.006Z,15.60
2023-01-21T02:40:48.806Z,15.50
2023-01-21T02:42:56.149Z,15.50
2023-01-21T02:45:00.887Z,15.50
2023-01-21T02:47:08.714Z,15.50
2023-01-21T02:49:25.235Z,15.50
2023-01-21T02:51:26.938Z,15.60
2023-01-21T02:53:29.823Z,15.50
2023-01-21T02:55:43.381Z,15.60
2023-01-21T02:57:45.255Z,15.60
2023-01-21T02:59:48.984Z,15.60
2023-01-21T03:01:53.830Z,15.50
2023-01-21T03:03:55.537Z,15.60
2023-01-21T03:05:57.345Z,15.60
2023-01-21T03:08:03.109Z,15.60
2023-01-21T03:10:10.900Z,15.60
2023-01-21T03:12:28.917Z,15.50
2023-01-21T03:14:34.777Z,15.60
2023-01-21T03:16:41.152Z,15.50
2023-01-21T03:18:45.668Z,15.60
2023-01-21T03:20:49.240Z,15.60
2023-01-21T03:22:52.876Z,15.50
2023-01-21T03:24:56.819Z,15.50
2023-01-21T03:26:59.383Z,15.60
2023-01-21T03:29:06.013Z,15.60
2023-01-21T03:31:13.628Z,15.50
2023-01-21T03:33:16.333Z,15.50
2023-01-21T03:35:21.530Z,15.50
2023-01-21T03:37:41.470Z,15.50
2023-01-21T03:39:45.812Z,15.50
2023-01-21T03:41:47.657Z,15.50
2023-01-21T03:43:49.528Z,15.60
2023-01-21T03:45:58.569Z,15.50
2023-01-21T03:48:03.904Z,15.50
2023-01-21T03:50:10.983Z,15.50
2023-01-21T03:52:13.479Z,15.50
2023-01-21T03:54:15.294Z,15.50
2023-01-21T03:56:17.105Z,15.50
2023-01-21T03:58:18.833Z,15.40
2023-01-21T04:00:20.710Z,15.50
2023-01-21T04:02:22.449Z,15.50
2023-01-21T04:04:24.240Z,15.50
2023-01-21T04:06:25.961Z,15.50
2023-01-21T04:08:27.798Z,15.50
2023-01-21T04:10:29.532Z,15.50
2023-01-21T04:12:31.340Z,15.50
2023-01-21T04:14:33.090Z,15.50
2023-01-21T04:16:34.877Z,15.50
2023-01-21T04:18:36.629Z,15.40
2023-01-21T04:20:38.440Z,15.40
2023-01-21T04:22:40.174Z,15.50
2023-01-21T04:24:42.024Z,15.50
2023-01-21T04:26:43.770Z,15.50
2023-01-21T04:28:45.584Z,15.50
2023-01-21T04:30:47.831Z,15.50
2023-01-21T04:32:49.671Z,15.50
2023-01-21T04:34:51.371Z,15.50
2023-01-21T04:36:53.144Z,15.50
2023-01-21T04:38:54.882Z,15.50
2023-01-21T04:40:56.710Z,15.40
2023-01-21T04:42:58.463Z,15.50
2023-01-21T04:45:00.285Z,15.50
2023-01-21T04:47:02.027Z,15.50
2023-01-21T04:49:03.965Z,15.40
2023-01-21T04:51:05.907Z,15.40
2023-01-21T04:53:07.837Z,15.40
2023-01-21T04:55:10.008Z,15.40
2023-01-21T04:57:11.872Z,15.40
2023-01-21T04:59:13.664Z,15.40
2023-01-21T05:01:15.539Z,15.40
2023-01-21T05:03:17.300Z,15.40
2023-01-21T05:05:19.105Z,15.40
2023-01-21T05:07:21.781Z,15.40
2023-01-21T05:09:23.684Z,15.40
2023-01-21T05:11:25.466Z,15.40
2023-01-21T05:13:27.276Z,15.40
2023-01-21T05:15:29.218Z,15.50
2023-01-21T05:17:31.065Z,15.40
2023-01-21T05:19:32.757Z,15.40
2023-01-21T05:21:34.590Z,15.40
2023-01-21T05:23:36.331Z,15.40
2023-01-21T05:25:38.099Z,15.40
2023-01-21T05:27:39.858Z,15.40
2023-01-21T05:29:41.733Z,15.40
2023-01-21T05:31:44.076Z,15.40
2023-01-21T05:33:45.958Z,15.40
2023-01-21T05:35:47.668Z,15.40
2023-01-21T05:37:49.512Z,15.40
2023-01-21T05:39:51.330Z,15.50
2023-01-21T05:41:53.106Z,15.50
2023-01-21T05:43:54.853Z,15.50
2023-01-21T05:45:57.070Z,15.50
2023-01-21T05:47:58.793Z,15.50
2023-01-21T05:50:00.549Z,15.40
2023-01-21T05:52:02.310Z,15.40
2023-01-21T05:54:04.192Z,15.40
2023-01-21T05:56:06.038Z,15.40
2023-01-21T05:58:08.100Z,15.50
2023-01-21T06:00:10.144Z,15.50
2023-01-21T06:02:12.010Z,15.50
2023-01-21T06:04:13.892Z,15.40
2023-01-21T06:06:15.641Z,15.40
2023-01-21T06:08:17.724Z,15.40
2023-01-21T06:10:19.731Z,15.40
2023-01-21T06:12:23.233Z,15.50
2023-01-21T06:14:25.625Z,15.40
2023-01-21T06:16:27.381Z,15.40
2023-01-21T06:18:29.156Z,15.40
2023-01-21T06:20:30.872Z,15.40
2023-01-21T06:22:32.763Z,15.40
2023-01-21T06:24:34.481Z,15.40
2023-01-21T06:26:36.325Z,15.40
2023-01-21T06:28:38.048Z,15.40
2023-01-21T06:30:39.836Z,15.40
2023-01-21T06:32:41.577Z,15.40
2023-01-21T06:34:45.776Z,15.40
2023-01-21T06:36:48.369Z,15.30
2023-01-21T06:38:50.144Z,15.40
2023-01-21T06:40:51.893Z,15.30
2023-01-21T06:42:53.850Z,15.40
2023-01-21T06:44:55.563Z,15.40
2023-01-21T06:47:01.522Z,15.40
2023-01-21T06:49:03.671Z,15.40
2023-01-21T06:51:05.693Z,15.40
2023-01-21T06:53:07.429Z,15.30
2023-01-21T06:55:10.511Z,15.30
2023-01-21T06:57:12.269Z,15.40
2023-01-21T06:59:14.034Z,15.30
2023-01-21T07:01:15.805Z,15.40
2023-01-21T07:03:17.647Z,15.40
2023-01-21T07:05:19.619Z,15.30
2023-01-21T07:07:21.629Z,15.40
2023-01-21T07:09:23.389Z,15.40
2023-01-21T07:11:25.186Z,15.40
2023-01-21T07:13:26.934Z,15.30
2023-01-21T07:15:28.705Z,15.30
2023-01-21T07:17:30.409Z,15.30
2023-01-21T07:19:32.205Z,15.30
2023-01-21T07:21:33.967Z,15.30
2023-01-21T07:23:35.722Z,15.30
2023-01-21T07:25:37.495Z,15.30
2023-01-21T07:27:40.821Z,15.30
2023-01-21T07:29:42.549Z,15.30
2023-01-21T07:31:44.706Z,15.30
2023-01-21T07:33:46.485Z,15.30
2023-01-21T07:35:48.271Z,15.40
2023-01-21T07:37:49.997Z,15.30
2023-01-21T07:39:53.780Z,15.30
2023-01-21T07:41:56.279Z,15.30
2023-01-21T07:44:01.438Z,15.30
2023-01-21T07:46:03.273Z,15.30
2023-01-21T07:48:05.263Z,15.30
2023-01-21T07:50:07.350Z,15.40
2023-01-21T07:52:09.221Z,15.30
2023-01-21T07:54:11.146Z,15.30
2023-01-21T07:56:13.456Z,15.30
2023-01-21T07:58:15.179Z,15.40
2023-01-21T08:00:17.257Z,15.40
2023-01-21T08:02:19.042Z,15.30
2023-01-21T08:04:20.875Z,15.30
2023-01-21T08:06:22.779Z,15.30
2023-01-21T08:08:24.683Z,15.40
2023-01-21T08:10:26.709Z,15.40
2023-01-21T08:12:28.515Z,15.30
2023-01-21T08:14:30.423Z,15.30
2023-01-21T08:16:32.333Z,15.30
2023-01-21T08:18:34.118Z,14.90
2023-01-21T08:20:35.908Z,13.70
2023-01-21T08:22:37.940Z,12.90
2023-01-21T08:24:39.924Z,13.20
2023-01-21T08:26:41.690Z,13.70
2023-01-21T08:28:43.517Z,14.30
2023-01-21T08:30:45.988Z,14.50
2023-01-21T08:32:49.294Z,14.80
2023-01-21T08:34:51.026Z,15.00
2023-01-21T08:36:52.980Z,15.10
2023-01-21T08:38:55.276Z,15.20
2023-01-21T08:40:57.243Z,15.30
2023-01-21T08:43:02.575Z,15.30
2023-01-21T08:45:05.204Z,15.30
2023-01-21T08:47:06.943Z,15.30
2023-01-21T08:49:08.860Z,15.30
2023-01-21T08:51:10.646Z,15.40
2023-01-21T08:53:12.431Z,15.40
2023-01-21T08:55:14.330Z,15.30
2023-01-21T08:57:16.197Z,15.40
2023-01-21T08:59:17.922Z,15.40
2023-01-21T09:01:19.801Z,15.50
2023-01-21T09:03:21.704Z,15.50
2023-01-21T09:05:23.502Z,15.50
2023-01-21T09:07:25.225Z,15.60
2023-01-21T09:09:27.067Z,15.60
2023-01-21T09:11:29.270Z,15.30
2023-01-21T09:13:35.518Z,15.30
2023-01-21T09:15:38.118Z,15.40
2023-01-21T09:17:39.872Z,15.50
2023-01-21T09:19:41.623Z,15.50
2023-01-21T09:21:43.469Z,15.30
2023-01-21T09:23:45.192Z,15.30
2023-01-21T09:25:46.961Z,15.40
2023-01-21T09:27:48.712Z,15.50
2023-01-21T09:29:50.526Z,15.60
2023-01-21T09:31:52.311Z,15.50
2023-01-21T09:33:55.710Z,15.50
2023-01-21T09:35:58.488Z,15.40
2023-01-21T09:38:00.323Z,15.40
2023-01-21T09:40:02.085Z,15.40
2023-01-21T09:42:03.884Z,15.50
2023-01-21T09:44:24.009Z,15.60
2023-01-21T09:46:28.429Z,15.70
2023-01-21T09:48:36.525Z,15.70
2023-01-21T09:50:39.158Z,15.80
2023-01-21T09:52:45.651Z,15.80
2023-01-21T09:54:47.462Z,15.80
2023-01-21T09:56:56.551Z,15.80
2023-01-21T09:59:07.199Z,15.90
2023-01-21T10:01:13.978Z,15.90
2023-01-21T10:03:15.802Z,15.90
2023-01-21T10:05:23.361Z,15.90
2023-01-21T10:07:33.896Z,15.90
2023-01-21T10:09:35.593Z,15.90
2023-01-21T10:11:49.600Z,15.80
2023-01-21T10:14:01.904Z,15.60
2023-01-21T10:16:03.718Z,15.50
2023-01-21T10:18:11.007Z,15.50
2023-01-21T10:20:35.869Z,15.60
2023-01-21T10:22:38.721Z,15.70
2023-01-21T10:24:45.101Z,15.80
2023-01-21T10:26:47.951Z,15.80
2023-01-21T10:28:53.716Z,15.80
2023-01-21T10:30:58.895Z,15.90
2023-01-21T10:33:00.741Z,15.90
2023-01-21T10:35:02.456Z,15.90
2023-01-21T10:37:07.329Z,15.90
2023-01-21T10:39:29.268Z,15.90
2023-01-21T10:41:31.397Z,15.90
2023-01-21T10:43:39.326Z,15.90
2023-01-21T10:45:41.097Z,16.00
2023-01-21T10:48:04.549Z,16.00
2023-01-21T10:50:10.081Z,16.00
2023-01-21T10:52:15.996Z,16.00
2023-01-21T10:54:22.739Z,15.90
2023-01-21T10:56:24.557Z,15.90
2023-01-21T10:58:26.284Z,15.80
2023-01-21T11:00:32.077Z,15.80
2023-01-21T11:02:34.202Z,15.90
2023-01-21T11:04:36.981Z,15.90
2023-01-21T11:06:38.800Z,16.00
2023-01-21T11:08:42.859Z,16.00
2023-01-21T11:10:46.035Z,15.90
2023-01-21T11:12:48.439Z,16.00
2023-01-21T11:14:53.709Z,16.00
2023-01-21T11:16:55.683Z,16.00
2023-01-21T11:18:57.561Z,16.00
2023-01-21T11:21:00.756Z,16.10
2023-01-21T11:23:07.278Z,16.00
2023-01-21T11:25:23.743Z,15.90
2023-01-21T11:27:28.337Z,16.00
2023-01-21T11:29:38.892Z,16.00
2023-01-21T11:31:41.932Z,16.00
2023-01-21T11:33:43.947Z,16.10
2023-01-21T11:35:46.019Z,16.00
2023-01-21T11:37:47.924Z,16.10
2023-01-21T11:39:54.777Z,16.10
2023-01-21T11:41:58.129Z,16.10
2023-01-21T11:44:10.209Z,16.10
2023-01-21T11:46:21.367Z,16.10
2023-01-21T11:48:23.202Z,16.10
2023-01-21T11:50:32.530Z,16.10
2023-01-21T11:52:34.437Z,16.10
2023-01-21T11:54:38.961Z,16.10
2023-01-21T11:56:42.315Z,16.00
2023-01-21T11:58:44.121Z,16.10
2023-01-21T12:00:47.122Z,16.10
2023-01-21T12:02:53.217Z,16.10
2023-01-21T12:04:55.001Z,16.10
2023-01-21T12:06:57.924Z,16.10
2023-01-21T12:09:02.229Z,16.10
2023-01-21T12:11:05.669Z,16.10
2023-01-21T12:13:13.128Z,16.10
2023-01-21T12:15:35.091Z,16.20
2023-01-21T12:17:45.986Z,16.10
2023-01-21T12:19:47.675Z,16.10
2023-01-21T12:22:11.304Z,16.10
2023-01-21T12:24:28.444Z,16.10
2023-01-21T12:26:38.953Z,14.70
2023-01-21T12:28:40.681Z,13.50
2023-01-21T12:30:58.465Z,13.70
2023-01-21T12:33:03.389Z,14.00
2023-01-21T12:35:05.335Z,14.30
2023-01-21T12:37:25.902Z,14.50
2023-01-21T12:39:29.495Z,14.60
2023-01-21T12:41:32.677Z,14.80
2023-01-21T12:43:43.339Z,14.90
2023-01-21T12:45:47.850Z,15.00
2023-01-21T12:47:52.683Z,15.10
2023-01-21T12:49:57.229Z,15.20
2023-01-21T12:52:03.009Z,15.20
2023-01-21T12:54:10.820Z,15.30
2023-01-21T12:56:24.623Z,15.30
2023-01-21T12:58:30.168Z,15.40
2023-01-21T13:00:34.007Z,15.40
2023-01-21T13:02:40.814Z,15.40
2023-01-21T13:04:49.324Z,15.40
2023-01-21T13:06:54.686Z,15.40
2023-01-21T13:08:59.355Z,15.40
2023-01-21T13:11:19.490Z,15.50
2023-01-21T13:13:33.908Z,15.50
2023-01-21T13:15:36.497Z,15.50
2023-01-21T13:17:40.043Z,15.50
2023-01-21T13:19:41.991Z,15.50
2023-01-21T13:21:49.589Z,15.50
2023-01-21T13:24:00.174Z,15.50
2023-01-21T13:26:28.437Z,15.50
2023-01-21T13:28:45.988Z,15.60
2023-01-21T13:30:50.746Z,15.50
2023-01-21T13:32:52.451Z,15.50
2023-01-21T13:34:57.325Z,15.50
2023-01-21T13:37:02.020Z,15.60
2023-01-21T13:39:03.736Z,15.60
2023-01-21T13:41:17.382Z,15.60
2023-01-21T13:43:24.979Z,15.60
2023-01-21T13:45:38.787Z,15.60
2023-01-21T13:47:49.375Z,15.60
2023-01-21T13:50:01.708Z,15.60
2023-01-21T13:52:26.387Z,15.60
2023-01-21T13:54:47.029Z,15.60
2023-01-21T13:57:18.085Z,15.60
2023-01-21T13:59:25.203Z,15.60
2023-01-21T14:01:29.391Z,15.60
2023-01-21T14:03:31.117Z,15.60
2023-01-21T14:05:36.383Z,15.60
2023-01-21T14:07:44.488Z,15.60
2023-01-21T14:10:00.429Z,15.60
2023-01-21T14:12:06.272Z,15.60
2023-01-21T14:14:18.432Z,15.70
2023-01-21T14:16:20.277Z,15.60
2023-01-21T14:18:34.509Z,15.60
2023-01-21T14:20:57.302Z,15.60
2023-01-21T14:23:05.121Z,15.60
2023-01-21T14:25:07.007Z,15.70
2023-01-21T14:27:08.719Z,15.60
2023-01-21T14:29:13.213Z,15.60
2023-01-21T14:31:18.681Z,15.70
2023-01-21T14:33:23.284Z,15.60
2023-01-21T14:35:27.552Z,15.60
2023-01-21T14:37:44.369Z,15.60
2023-01-21T14:39:49.902Z,15.60
2023-01-21T14:42:09.057Z,15.60
2023-01-21T14:44:30.726Z,15.60
2023-01-21T14:46:33.597Z,15.70
2023-01-21T14:48:39.504Z,15.70
2023-01-21T14:50:46.182Z,15.70
2023-01-21T14:52:48.057Z,15.60
2023-01-21T14:54:49.924Z,15.60
2023-01-21T14:56:52.585Z,15.60
2023-01-21T14:58:54.345Z,15.60
2023-01-21T15:00:56.184Z,15.60
2023-01-21T15:03:15.695Z,15.60
2023-01-21T15:05:22.309Z,15.60
2023-01-21T15:07:28.839Z,15.60
2023-01-21T15:09:34.866Z,15.60
2023-01-21T15:11:38.557Z,15.60
2023-01-21T15:13:40.656Z,15.60
2023-01-21T15:16:02.529Z,15.60
2023-01-21T15:18:10.339Z,15.60
2023-01-21T15:20:32.400Z,15.60
2023-01-21T15:22:41.188Z,15.60
2023-01-21T15:25:01.074Z,15.60
2023-01-21T15:27:14.731Z,15.60
2023-01-21T15:29:23.541Z,15.60
2023-01-21T15:31:25.354Z,15.60
2023-01-21T15:33:27.951Z,15.70
2023-01-21T15:35:29.693Z,15.60
2023-01-21T15:37:32.824Z,15.70
2023-01-21T15:39:34.698Z,15.70
2023-01-21T15:41:42.685Z,15.70
2023-01-21T15:43:48.125Z,15.70
2023-01-21T15:45:59.147Z,15.70
2023-01-21T15:48:18.540Z,15.60
2023-01-21T15:50:31.687Z,15.70
2023-01-21T15:52:53.656Z,15.70
2023-01-21T15:55:14.135Z,15.70
2023-01-21T15:57:28.844Z,15.70
2023-01-21T15:59:33.396Z,15.70
2023-01-21T16:01:36.764Z,15.70
2023-01-21T16:03:42.823Z,15.70
2023-01-21T16:05:47.544Z,15.70
2023-01-21T16:07:52.051Z,15.70
2023-01-21T16:10:18.057Z,15.70
2023-01-21T16:12:25.908Z,15.70
2023-01-21T16:14:37.844Z,15.60
2023-01-21T16:16:45.462Z,15.70
2023-01-21T16:19:19.198Z,15.70
2023-01-21T16:21:27.830Z,15.70
2023-01-21T16:23:31.871Z,15.60
2023-01-21T16:25:33.656Z,15.60
2023-01-21T16:27:35.376Z,15.60
2023-01-21T16:29:38.024Z,15.60
2023-01-21T16:31:53.282Z,15.60
2023-01-21T16:33:55.077Z,15.70
2023-01-21T16:35:58.114Z,15.60
2023-01-21T16:37:59.978Z,15.60
2023-01-21T16:40:16.824Z,15.70
2023-01-21T16:42:23.800Z,15.70
2023-01-21T16:44:25.544Z,15.70
2023-01-21T16:46:30.125Z,15.70
2023-01-21T16:48:32.978Z,15.70
2023-01-21T16:50:34.756Z,15.60
2023-01-21T16:52:36.486Z,15.60
2023-01-21T16:54:47.369Z,15.60
2023-01-21T16:56:56.905Z,15.60
2023-01-21T16:58:58.661Z,15.60
2023-01-21T17:01:10.219Z,15.60
2023-01-21T17:03:12.176Z,15.60
2023-01-21T17:05:13.932Z,15.60
2023-01-21T17:07:17.158Z,15.60
2023-01-21T17:09:23.323Z,15.60
2023-01-21T17:11:25.241Z,15.60
2023-01-21T17:13:28.560Z,15.60
2023-01-21T17:15:35.493Z,15.60
2023-01-21T17:17:37.282Z,15.70
2023-01-21T17:19:42.557Z,15.60
2023-01-21T17:21:45.961Z,15.60
2023-01-21T17:23:48.622Z,15.60
2023-01-21T17:25:53.355Z,15.60
2023-01-21T17:27:55.142Z,15.60
2023-01-21T17:30:15.289Z,15.60
2023-01-21T17:32:24.837Z,15.60
2023-01-21T17:34:30.776Z,15.60
2023-01-21T17:36:33.739Z,15.60
2023-01-21T17:38:40.071Z,15.60
2023-01-21T17:40:44.877Z,15.60
2023-01-21T17:42:46.606Z,15.60
2023-01-21T17:44:49.203Z,15.50
2023-01-21T17:46:52.401Z,15.50
2023-01-21T17:49:07.250Z,15.50
2023-01-21T17:51:13.927Z,15.50
2023-01-21T17:53:24.754Z,15.50
2023-01-21T17:55:26.482Z,15.50
2023-01-21T17:57:37.192Z,15.50
2023-01-21T17:59:39.692Z,15.50
2023-01-21T18:01:41.590Z,15.50
2023-01-21T18:03:43.736Z,15.60
2023-01-21T18:05:45.465Z,15.50
2023-01-21T18:07:47.243Z,15.50
2023-01-21T18:09:50.085Z,15.60
2023-01-21T18:11:53.319Z,15.50
2023-01-21T18:13:55.064Z,15.50
2023-01-21T18:15:56.867Z,15.50
2023-01-21T18:17:59.928Z,15.50
2023-01-21T18:20:01.637Z,15.50
2023-01-21T18:22:05.915Z,15.50
2023-01-21T18:24:09.500Z,15.50
2023-01-21T18:26:33.035Z,15.50
2023-01-21T18:28:34.848Z,15.50
2023-01-21T18:30:36.617Z,15.50
2023-01-21T18:32:38.709Z,15.50
2023-01-21T18:34:41.118Z,15.50
2023-01-21T18:36:42.847Z,15.50
2023-01-21T18:38:44.637Z,15.50
2023-01-21T18:40:46.374Z,15.50
2023-01-21T18:42:49.036Z,15.50
2023-01-21T18:44:50.751Z,15.50
2023-01-21T18:46:52.639Z,15.50
2023-01-21T18:48:54.381Z,15.50
2023-01-21T18:50:56.368Z,15.50
2023-01-21T18:52:58.159Z,15.50
2023-01-21T18:54:59.904Z,15.50
2023-01-21T18:57:02.019Z,15.50
2023-01-21T18:59:09.696Z,15.50
2023-01-21T19:01:22.467Z,15.50
2023-01-21T19:03:25.049Z,15.50
2023-01-21T19:05:30.757Z,15.50
2023-01-21T19:07:32.912Z,15.50
2023-01-21T19:09:34.636Z,15.50
2023-01-21T19:11:36.405Z,15.50
2023-01-21T19:13:38.123Z,15.50
2023-01-21T19:15:39.966Z,15.50
2023-01-21T19:17:41.742Z,15.50
2023-01-21T19:19:43.589Z,15.50
2023-01-21T19:21:45.301Z,15.50
2023-01-21T19:23:47.113Z,15.50
2023-01-21T19:25:53.540Z,15.50
2023-01-21T19:27:56.507Z,15.50
2023-01-21T19:29:58.257Z,15.50
2023-01-21T19:32:00.175Z,15.50
2023-01-21T19:34:01.914Z,15.50
2023-01-21T19:36:06.460Z,15.50
2023-01-21T19:38:12.544Z,15.50
2023-01-21T19:40:16.252Z,15.50
2023-01-21T19:42:19.340Z,15.50
2023-01-21T19:44:21.084Z,15.50
2023-01-21T19:46:22.981Z,15.50
2023-01-21T19:48:25.025Z,15.50
2023-01-21T19:50:27.113Z,15.60
2023-01-21T19:52:28.965Z,15.60
2023-01-21T19:54:30.772Z,15.50
2023-01-21T19:56:32.763Z,15.50
2023-01-21T19:58:34.590Z,15.50
2023-01-21T20:00:36.517Z,15.50
2023-01-21T20:02:38.323Z,15.50
2023-01-21T20:04:40.328Z,15.50
2023-01-21T20:06:42.336Z,15.50
2023-01-21T20:08:44.329Z,15.50
2023-01-21T20:10:46.128Z,15.50
2023-01-21T20:12:48.275Z,15.50
2023-01-21T20:14:50.053Z,15.50
2023-01-21T20:16:53.227Z,15.50
2023-01-21T20:18:55.162Z,15.50
2023-01-21T20:20:57.075Z,15.50
2023-01-21T20:22:59.696Z,15.50
2023-01-21T20:25:01.582Z,15.50
2023-01-21T20:27:06.570Z,15.50
2023-01-21T20:29:12.482Z,15.50
2023-01-21T20:31:14.546Z,15.50
2023-01-21T20:33:18.050Z,15.50
2023-01-21T20:35:20.866Z,15.50
2023-01-21T20:37:23.021Z,15.50
2023-01-21T20:39:24.897Z,15.50
2023-01-21T20:41:26.818Z,15.50
2023-01-21T20:43:29.260Z,15.50
2023-01-21T20:45:42.260Z,15.50
2023-01-21T20:47:50.097Z,15.50
2023-01-21T20:49:52.241Z,15.50
2023-01-21T20:51:54.091Z,15.50
2023-01-21T20:53:56.062Z,15.50
2023-01-21T20:56:02.521Z,15.40
2023-01-21T20:58:05.097Z,15.50
2023-01-21T21:00:07.377Z,15.40
2023-01-21T21:02:12.566Z,15.50
2023-01-21T21:04:14.864Z,15.50
2023-01-21T21:06:18.877Z,15.40
2023-01-21T21:08:21.252Z,15.40
2023-01-21T21:10:24.831Z,15.50
2023-01-21T21:12:26.775Z,15.50
2023-01-21T21:14:28.580Z,15.50
2023-01-21T21:16:30.487Z,15.40
2023-01-21T21:18:32.337Z,15.40
2023-01-21T21:20:35.279Z,15.40
2023-01-21T21:22:37.235Z,15.50
2023-01-21T21:24:39.202Z,15.50
2023-01-21T21:26:41.998Z,15.50
2023-01-21T21:28:44.404Z,15.40
2023-01-21T21:30:46.506Z,15.40
2023-01-21T21:32:48.512Z,15.40
2023-01-21T21:34:50.690Z,15.40
2023-01-21T21:36:52.493Z,15.40
2023-01-21T21:38:54.342Z,15.40
2023-01-21T21:40:56.209Z,15.40
2023-01-21T21:43:01.460Z,15.40
2023-01-21T21:45:03.496Z,15.30
2023-01-21T21:47:05.337Z,15.40
2023-01-21T21:49:07.256Z,15.40
2023-01-21T21:51:10.295Z,15.40
2023-01-21T21:53:12.329Z,15.40
2023-01-21T21:55:14.217Z,15.40
2023-01-21T21:57:16.150Z,15.40
2023-01-21T21:59:18.297Z,15.40
2023-01-21T22:01:24.349Z,15.40
2023-01-21T22:03:26.415Z,15.40
2023-01-21T22:05:28.761Z,15.40
2023-01-21T22:07:30.878Z,15.40
2023-01-21T22:09:35.584Z,15.40
2023-01-21T22:11:37.879Z,15.40
2023-01-21T22:13:40.678Z,15.40
2023-01-21T22:15:42.690Z,15.40
2023-01-21T22:17:44.767Z,15.40
2023-01-21T22:19:46.712Z,15.40
2023-01-21T22:21:49.090Z,15.40
2023-01-21T22:23:51.367Z,15.40
2023-01-21T22:25:53.210Z,15.40
2023-01-21T22:27:55.221Z,15.40
2023-01-21T22:30:02.831Z,15.40
2023-01-21T22:32:04.985Z,15.40
2023-01-21T22:34:06.948Z,15.40
2023-01-21T22:36:10.234Z,15.30
2023-01-21T22:38:12.027Z,15.40
2023-01-21T22:40:14.488Z,15.40
2023-01-21T22:42:16.277Z,15.40
2023-01-21T22:44:18.411Z,15.30
2023-01-21T22:46:24.800Z,15.30
2023-01-21T22:48:26.954Z,15.40
2023-01-21T22:50:28.903Z,15.40
2023-01-21T22:52:30.899Z,15.40
2023-01-21T22:54:35.113Z,15.40
2023-01-21T22:56:51.102Z,15.40
2023-01-21T22:58:53.881Z,15.40
2023-01-21T23:00:56.383Z,15.40
2023-01-21T23:02:58.630Z,15.40
2023-01-21T23:05:04.314Z,15.40
2023-01-21T23:07:06.181Z,15.40
2023-01-21T23:09:11.232Z,15.40
2023-01-21T23:11:14.216Z,15.40
2023-01-21T23:13:16.608Z,15.40
2023-01-21T23:15:18.410Z,15.40
2023-01-21T23:17:20.531Z,15.40
2023-01-21T23:19:25.363Z,15.40
2023-01-21T23:21:27.463Z,15.40
2023-01-21T23:23:32.287Z,15.40
2023-01-21T23:25:34.268Z,15.40
2023-01-21T23:27:36.156Z,15.40
2023-01-21T23:29:38.069Z,15.40
2023-01-21T23:31:43.067Z,15.40
2023-01-21T23:33:48.760Z,15.40
2023-01-21T23:35:54.109Z,15.30
2023-01-21T23:37:56.190Z,15.40
2023-01-21T23:39:58.108Z,15.30
2023-01-21T23:42:00.042Z,15.30
2023-01-21T23:44:02.002Z,15.30
2023-01-21T23:46:04.673Z,15.30
2023-01-21T23:48:06.729Z,15.30
2023-01-21T23:50:09.048Z,15.40
2023-01-21T23:52:13.584Z,15.30
2023-01-21T23:54:16.105Z,15.30
2023-01-21T23:56:19.947Z,15.30
2023-01-21T23:58:21.797Z,15.30
